sensor_id;sensor_type;location;lat;lon;timestamp;pressure;altitude;pressure_sealevel;temperature;humidity
19023;BME280;35226;48.606;8.858;2023-03-25T00:01:34;95813.97;;;6.91;100.00
19023;BME280;35226;48.606;8.858;2023-03-25T00:04:00;95805.47;;;6.86;100.00
19023;BME280;35226;48.606;8.858;2023-03-25T00:06:29;95804.81;;;6.82;100.00
19023;BME280;35226;48.606;8.858;2023-03-25T00:08:55;95796.22;;;6.80;100.00
19023;BME280;35226;48.606;8.858;2023-03-25T00:11:21;95796.41;;;6.73;100.00
19023;BME280;35226;48.606;8.858;2023-03-25T00:13:48;95783.97;;;6.68;100.00
19023;BME280;35226;48.606;8.858;2023-03-25T00:16:14;95784.59;;;6.59;100.00
19023;BME280;35226;48.606;8.858;2023-03-25T00:18:43;95774.44;;;6.56;100.00
19023;BME280;35226;48.606;8.858;2023-03-25T00:21:08;95774.63;;;6.49;100.00
19023;BME280;35226;48.606;8.858;2023-03-25T00:23:35;95769.06;;;6.53;100.00
19023;BME280;35226;48.606;8.858;2023-03-25T00:26:00;95757.59;;;6.42;100.00
19023;BME280;35226;48.606;8.858;2023-03-25T00:28:29;95760.41;;;6.38;100.00
19023;BME280;35226;48.606;8.858;2023-03-25T00:30:59;95763.31;;;6.31;100.00
19023;BME280;35226;48.606;8.858;2023-03-25T00:33:26;95767.63;;;6.32;100.00
19023;BME280;35226;48.606;8.858;2023-03-25T00:35:52;95775.84;;;6.32;100.00
19023;BME280;35226;48.606;8.858;2023-03-25T00:38:24;95769.00;;;6.24;100.00
19023;BME280;35226;48.606;8.858;2023-03-25T00:40:59;95768.72;;;6.18;100.00
19023;BME280;35226;48.606;8.858;2023-03-25T00:43:31;95756.19;;;6.17;100.00
19023;BME280;35226;48.606;8.858;2023-03-25T00:45:57;95751.47;;;6.02;100.00
19023;BME280;35226;48.606;8.858;2023-03-25T00:48:22;95735.97;;;6.11;100.00
19023;BME280;35226;48.606;8.858;2023-03-25T00:50:48;95738.88;;;6.20;100.00
19023;BME280;35226;48.606;8.858;2023-03-25T00:53:14;95731.44;;;6.05;100.00
19023;BME280;35226;48.606;8.858;2023-03-25T00:55:39;95727.22;;;6.00;100.00
19023;BME280;35226;48.606;8.858;2023-03-25T00:58:05;95723.09;;;6.08;100.00
19023;BME280;35226;48.606;8.858;2023-03-25T01:00:31;95716.78;;;6.11;100.00
19023;BME280;35226;48.606;8.858;2023-03-25T01:02:56;95722.69;;;6.10;100.00
19023;BME280;35226;48.606;8.858;2023-03-25T01:05:22;95728.09;;;6.13;100.00
19023;BME280;35226;48.606;8.858;2023-03-25T01:07:48;95735.63;;;6.09;100.00
19023;BME280;35226;48.606;8.858;2023-03-25T01:10:16;95739.50;;;6.12;100.00
19023;BME280;35226;48.606;8.858;2023-03-25T01:12:42;95752.59;;;6.04;100.00
19023;BME280;35226;48.606;8.858;2023-03-25T01:15:09;95768.78;;;5.99;100.00
19023;BME280;35226;48.606;8.858;2023-03-25T01:17:34;95769.53;;;5.99;100.00
19023;BME280;35226;48.606;8.858;2023-03-25T01:20:01;95750.28;;;6.03;100.00
19023;BME280;35226;48.606;8.858;2023-03-25T01:22:28;95747.53;;;6.03;100.00
19023;BME280;35226;48.606;8.858;2023-03-25T01:24:54;95747.47;;;6.06;100.00
19023;BME280;35226;48.606;8.858;2023-03-25T01:27:19;95751.41;;;6.05;100.00
19023;BME280;35226;48.606;8.858;2023-03-25T01:29:45;95742.59;;;6.14;100.00
19023;BME280;35226;48.606;8.858;2023-03-25T01:32:11;95730.13;;;6.09;100.00
19023;BME280;35226;48.606;8.858;2023-03-25T01:34:36;95737.94;;;6.11;100.00
19023;BME280;35226;48.606;8.858;2023-03-25T01:37:03;95733.41;;;6.04;100.00
19023;BME280;35226;48.606;8.858;2023-03-25T01:39:29;95755.25;;;6.08;100.00
19023;BME280;35226;48.606;8.858;2023-03-25T01:41:54;95736.41;;;6.10;100.00
19023;BME280;35226;48.606;8.858;2023-03-25T01:46:50;95733.91;;;5.99;100.00
19023;BME280;35226;48.606;8.858;2023-03-25T01:49:32;95740.69;;;5.94;100.00
19023;BME280;35226;48.606;8.858;2023-03-25T01:52:20;95733.72;;;5.90;100.00
19023;BME280;35226;48.606;8.858;2023-03-25T01:54:50;95718.41;;;5.92;100.00
19023;BME280;35226;48.606;8.858;2023-03-25T01:57:18;95729.84;;;5.87;100.00
19023;BME280;35226;48.606;8.858;2023-03-25T01:59:45;95724.31;;;5.91;100.00
19023;BME280;35226;48.606;8.858;2023-03-25T02:02:13;95716.84;;;5.91;100.00
19023;BME280;35226;48.606;8.858;2023-03-25T02:04:58;95716.22;;;5.84;100.00
19023;BME280;35226;48.606;8.858;2023-03-25T02:07:32;95718.47;;;5.89;100.00
19023;BME280;35226;48.606;8.858;2023-03-25T02:10:05;95726.28;;;5.90;100.00
19023;BME280;35226;48.606;8.858;2023-03-25T02:12:32;95724.09;;;5.82;100.00
19023;BME280;35226;48.606;8.858;2023-03-25T02:14:58;95736.47;;;5.90;100.00
19023;BME280;35226;48.606;8.858;2023-03-25T02:17:37;95736.88;;;5.88;100.00
19023;BME280;35226;48.606;8.858;2023-03-25T02:39:52;95832.56;;;5.63;100.00
19023;BME280;35226;48.606;8.858;2023-03-25T02:47:30;95774.47;;;5.12;100.00
19023;BME280;35226;48.606;8.858;2023-03-25T02:50:08;95740.41;;;4.94;100.00
19023;BME280;35226;48.606;8.858;2023-03-25T02:52:45;95734.56;;;4.92;100.00
19023;BME280;35226;48.606;8.858;2023-03-25T02:55:13;95721.31;;;4.90;100.00
19023;BME280;35226;48.606;8.858;2023-03-25T02:57:45;95719.50;;;4.83;100.00
19023;BME280;35226;48.606;8.858;2023-03-25T03:00:14;95718.81;;;4.79;100.00
19023;BME280;35226;48.606;8.858;2023-03-25T03:02:49;95730.50;;;4.80;100.00
19023;BME280;35226;48.606;8.858;2023-03-25T03:05:34;95732.13;;;4.77;100.00
19023;BME280;35226;48.606;8.858;2023-03-25T03:10:41;95725.00;;;4.80;100.00
19023;BME280;35226;48.606;8.858;2023-03-25T03:18:52;95753.00;;;4.68;100.00
19023;BME280;35226;48.606;8.858;2023-03-25T03:21:28;95750.66;;;4.70;100.00
19023;BME280;35226;48.606;8.858;2023-03-25T03:26:37;95739.63;;;4.73;100.00
19023;BME280;35226;48.606;8.858;2023-03-25T03:29:15;95744.81;;;4.68;100.00
19023;BME280;35226;48.606;8.858;2023-03-25T03:34:33;95752.16;;;4.71;100.00
19023;BME280;35226;48.606;8.858;2023-03-25T03:37:06;95756.38;;;4.75;100.00
19023;BME280;35226;48.606;8.858;2023-03-25T03:39:35;95763.81;;;4.75;100.00
19023;BME280;35226;48.606;8.858;2023-03-25T03:42:34;95761.91;;;4.72;100.00
19023;BME280;35226;48.606;8.858;2023-03-25T03:45:07;95770.84;;;4.76;100.00
19023;BME280;35226;48.606;8.858;2023-03-25T03:47:38;95776.28;;;4.79;100.00
19023;BME280;35226;48.606;8.858;2023-03-25T03:50:17;95781.25;;;4.84;100.00
19023;BME280;35226;48.606;8.858;2023-03-25T03:55:53;95779.66;;;4.87;100.00
19023;BME280;35226;48.606;8.858;2023-03-25T03:58:26;95771.34;;;4.91;100.00
19023;BME280;35226;48.606;8.858;2023-03-25T04:03:59;95763.03;;;4.98;100.00
19023;BME280;35226;48.606;8.858;2023-03-25T04:06:38;95768.81;;;5.00;100.00
19023;BME280;35226;48.606;8.858;2023-03-25T04:09:42;95763.44;;;4.96;100.00
19023;BME280;35226;48.606;8.858;2023-03-25T04:12:31;95766.59;;;4.95;100.00
19023;BME280;35226;48.606;8.858;2023-03-25T04:15:01;95769.31;;;4.95;100.00
19023;BME280;35226;48.606;8.858;2023-03-25T04:17:27;95759.94;;;4.96;100.00
19023;BME280;35226;48.606;8.858;2023-03-25T04:19:58;95756.88;;;4.90;100.00
19023;BME280;35226;48.606;8.858;2023-03-25T04:22:23;95758.53;;;4.88;100.00
19023;BME280;35226;48.606;8.858;2023-03-25T04:24:49;95759.63;;;4.90;100.00
19023;BME280;35226;48.606;8.858;2023-03-25T04:27:19;95756.84;;;4.94;100.00
19023;BME280;35226;48.606;8.858;2023-03-25T04:29:48;95758.94;;;4.86;100.00
19023;BME280;35226;48.606;8.858;2023-03-25T04:32:14;95757.59;;;4.94;100.00
19023;BME280;35226;48.606;8.858;2023-03-25T04:34:39;95757.19;;;4.96;100.00
19023;BME280;35226;48.606;8.858;2023-03-25T04:37:05;95747.44;;;4.95;100.00
19023;BME280;35226;48.606;8.858;2023-03-25T04:39:30;95751.84;;;4.89;100.00
19023;BME280;35226;48.606;8.858;2023-03-25T04:41:58;95752.38;;;4.80;100.00
19023;BME280;35226;48.606;8.858;2023-03-25T04:44:28;95754.06;;;4.74;100.00
19023;BME280;35226;48.606;8.858;2023-03-25T04:46:58;95754.06;;;4.74;100.00
19023;BME280;35226;48.606;8.858;2023-03-25T04:49:25;95746.22;;;4.76;100.00
19023;BME280;35226;48.606;8.858;2023-03-25T04:51:52;95749.16;;;4.65;100.00
19023;BME280;35226;48.606;8.858;2023-03-25T04:54:21;95758.50;;;4.68;100.00
19023;BME280;35226;48.606;8.858;2023-03-25T04:56:48;95752.38;;;4.60;100.00
19023;BME280;35226;48.606;8.858;2023-03-25T04:59:14;95760.22;;;4.58;100.00
19023;BME280;35226;48.606;8.858;2023-03-25T05:01:40;95748.88;;;4.60;100.00
19023;BME280;35226;48.606;8.858;2023-03-25T05:04:12;95761.41;;;4.57;100.00
19023;BME280;35226;48.606;8.858;2023-03-25T05:06:40;95766.53;;;4.55;100.00
19023;BME280;35226;48.606;8.858;2023-03-25T05:09:12;95779.84;;;4.53;100.00
19023;BME280;35226;48.606;8.858;2023-03-25T05:11:38;95779.78;;;4.57;100.00
19023;BME280;35226;48.606;8.858;2023-03-25T05:14:06;95791.50;;;4.57;100.00
19023;BME280;35226;48.606;8.858;2023-03-25T05:16:32;95786.97;;;4.47;100.00
19023;BME280;35226;48.606;8.858;2023-03-25T05:18:58;95797.50;;;4.49;100.00
19023;BME280;35226;48.606;8.858;2023-03-25T05:21:24;95808.44;;;4.49;100.00
19023;BME280;35226;48.606;8.858;2023-03-25T05:23:49;95800.00;;;4.63;100.00
19023;BME280;35226;48.606;8.858;2023-03-25T05:26:17;95800.06;;;4.59;100.00
19023;BME280;35226;48.606;8.858;2023-03-25T05:28:43;95801.06;;;4.69;100.00
19023;BME280;35226;48.606;8.858;2023-03-25T05:31:09;95801.19;;;4.62;100.00
19023;BME280;35226;48.606;8.858;2023-03-25T05:33:36;95798.56;;;4.55;100.00
19023;BME280;35226;48.606;8.858;2023-03-25T05:36:11;95804.63;;;4.66;100.00
19023;BME280;35226;48.606;8.858;2023-03-25T05:38:38;95802.63;;;4.70;100.00
19023;BME280;35226;48.606;8.858;2023-03-25T05:41:07;95802.03;;;4.59;100.00
19023;BME280;35226;48.606;8.858;2023-03-25T05:43:37;95823.84;;;4.62;100.00
19023;BME280;35226;48.606;8.858;2023-03-25T05:46:03;95833.59;;;4.63;100.00
19023;BME280;35226;48.606;8.858;2023-03-25T05:48:30;95837.75;;;4.71;100.00
19023;BME280;35226;48.606;8.858;2023-03-25T05:51:02;95851.81;;;4.73;100.00
19023;BME280;35226;48.606;8.858;2023-03-25T05:53:30;95857.63;;;4.75;100.00
19023;BME280;35226;48.606;8.858;2023-03-25T05:55:58;95852.75;;;4.87;100.00
19023;BME280;35226;48.606;8.858;2023-03-25T05:58:23;95865.31;;;4.84;100.00
19023;BME280;35226;48.606;8.858;2023-03-25T06:00:49;95870.78;;;4.84;100.00
19023;BME280;35226;48.606;8.858;2023-03-25T06:03:17;95879.03;;;4.80;100.00
19023;BME280;35226;48.606;8.858;2023-03-25T06:05:45;95875.31;;;4.94;100.00
19023;BME280;35226;48.606;8.858;2023-03-25T06:08:11;95877.13;;;5.01;100.00
19023;BME280;35226;48.606;8.858;2023-03-25T06:10:38;95870.88;;;5.00;100.00
19023;BME280;35226;48.606;8.858;2023-03-25T06:13:03;95867.47;;;4.96;100.00
19023;BME280;35226;48.606;8.858;2023-03-25T06:15:29;95863.59;;;4.94;100.00
19023;BME280;35226;48.606;8.858;2023-03-25T06:17:58;95865.09;;;4.98;100.00
19023;BME280;35226;48.606;8.858;2023-03-25T06:20:24;95860.06;;;4.93;100.00
19023;BME280;35226;48.606;8.858;2023-03-25T06:22:50;95853.22;;;5.05;100.00
19023;BME280;35226;48.606;8.858;2023-03-25T06:25:18;95864.00;;;4.92;100.00
19023;BME280;35226;48.606;8.858;2023-03-25T06:27:47;95861.25;;;4.92;100.00
19023;BME280;35226;48.606;8.858;2023-03-25T06:30:16;95866.44;;;4.87;100.00
19023;BME280;35226;48.606;8.858;2023-03-25T06:32:42;95863.16;;;4.95;100.00
19023;BME280;35226;48.606;8.858;2023-03-25T06:35:09;95856.88;;;4.98;100.00
19023;BME280;35226;48.606;8.858;2023-03-25T06:37:36;95853.91;;;4.89;100.00
19023;BME280;35226;48.606;8.858;2023-03-25T06:40:07;95861.56;;;4.98;100.00
19023;BME280;35226;48.606;8.858;2023-03-25T06:42:33;95863.69;;;5.10;100.00
19023;BME280;35226;48.606;8.858;2023-03-25T06:45:19;95868.41;;;5.29;100.00
19023;BME280;35226;48.606;8.858;2023-03-25T06:47:59;95866.16;;;5.47;100.00
19023;BME280;35226;48.606;8.858;2023-03-25T06:50:25;95866.22;;;5.64;100.00
19023;BME280;35226;48.606;8.858;2023-03-25T06:52:51;95868.31;;;5.76;100.00
19023;BME280;35226;48.606;8.858;2023-03-25T06:55:16;95856.78;;;5.84;100.00
19023;BME280;35226;48.606;8.858;2023-03-25T06:57:42;95852.38;;;5.90;100.00
19023;BME280;35226;48.606;8.858;2023-03-25T07:00:09;95854.53;;;5.99;100.00
19023;BME280;35226;48.606;8.858;2023-03-25T07:02:37;95855.88;;;6.11;100.00
19023;BME280;35226;48.606;8.858;2023-03-25T07:05:03;95842.84;;;6.15;100.00
19023;BME280;35226;48.606;8.858;2023-03-25T07:07:29;95853.53;;;6.09;100.00
19023;BME280;35226;48.606;8.858;2023-03-25T07:09:54;95848.94;;;6.06;100.00
19023;BME280;35226;48.606;8.858;2023-03-25T07:12:21;95839.09;;;5.89;100.00
19023;BME280;35226;48.606;8.858;2023-03-25T07:14:51;95826.28;;;5.82;100.00
19023;BME280;35226;48.606;8.858;2023-03-25T07:17:17;95822.78;;;5.82;100.00
19023;BME280;35226;48.606;8.858;2023-03-25T07:19:42;95825.75;;;5.91;100.00
19023;BME280;35226;48.606;8.858;2023-03-25T07:22:08;95831.34;;;5.84;100.00
19023;BME280;35226;48.606;8.858;2023-03-25T07:24:34;95846.59;;;5.85;100.00
19023;BME280;35226;48.606;8.858;2023-03-25T07:26:59;95852.22;;;5.78;100.00
19023;BME280;35226;48.606;8.858;2023-03-25T07:29:27;95856.44;;;5.82;100.00
19023;BME280;35226;48.606;8.858;2023-03-25T07:31:52;95861.84;;;5.86;100.00
19023;BME280;35226;48.606;8.858;2023-03-25T07:34:18;95871.16;;;5.92;100.00
19023;BME280;35226;48.606;8.858;2023-03-25T07:36:43;95869.97;;;5.93;100.00
19023;BME280;35226;48.606;8.858;2023-03-25T07:39:09;95870.00;;;6.09;100.00
19023;BME280;35226;48.606;8.858;2023-03-25T07:41:35;95867.31;;;6.25;100.00
19023;BME280;35226;48.606;8.858;2023-03-25T07:44:23;95861.31;;;6.30;100.00
19023;BME280;35226;48.606;8.858;2023-03-25T07:46:49;95866.22;;;6.39;100.00
19023;BME280;35226;48.606;8.858;2023-03-25T07:49:15;95863.66;;;6.48;100.00
19023;BME280;35226;48.606;8.858;2023-03-25T07:51:41;95849.59;;;6.46;100.00
19023;BME280;35226;48.606;8.858;2023-03-25T07:54:07;95851.22;;;6.44;100.00
19023;BME280;35226;48.606;8.858;2023-03-25T07:56:33;95861.06;;;6.41;100.00
19023;BME280;35226;48.606;8.858;2023-03-25T07:58:59;95860.66;;;6.43;100.00
19023;BME280;35226;48.606;8.858;2023-03-25T08:01:28;95871.88;;;6.48;100.00
19023;BME280;35226;48.606;8.858;2023-03-25T08:03:54;95874.09;;;6.37;100.00
19023;BME280;35226;48.606;8.858;2023-03-25T08:06:19;95881.69;;;6.29;100.00
19023;BME280;35226;48.606;8.858;2023-03-25T08:08:45;95882.09;;;6.12;100.00
19023;BME280;35226;48.606;8.858;2023-03-25T08:11:11;95894.47;;;6.00;100.00
19023;BME280;35226;48.606;8.858;2023-03-25T08:13:36;95897.06;;;6.07;100.00
19023;BME280;35226;48.606;8.858;2023-03-25T08:16:02;95891.72;;;6.20;100.00
19023;BME280;35226;48.606;8.858;2023-03-25T08:18:28;95897.50;;;6.06;100.00
19023;BME280;35226;48.606;8.858;2023-03-25T08:20:54;95906.84;;;6.08;100.00
19023;BME280;35226;48.606;8.858;2023-03-25T08:23:20;95908.03;;;6.07;100.00
19023;BME280;35226;48.606;8.858;2023-03-25T08:25:49;95928.00;;;6.08;100.00
19023;BME280;35226;48.606;8.858;2023-03-25T08:28:17;95930.75;;;6.08;100.00
19023;BME280;35226;48.606;8.858;2023-03-25T08:30:47;95927.53;;;5.93;100.00
19023;BME280;35226;48.606;8.858;2023-03-25T08:33:13;95930.84;;;6.04;100.00
19023;BME280;35226;48.606;8.858;2023-03-25T08:35:44;95922.66;;;6.01;100.00
19023;BME280;35226;48.606;8.858;2023-03-25T08:38:09;95938.84;;;6.15;100.00
19023;BME280;35226;48.606;8.858;2023-03-25T08:40:35;95938.75;;;6.18;100.00
19023;BME280;35226;48.606;8.858;2023-03-25T08:43:04;95944.34;;;6.15;100.00
19023;BME280;35226;48.606;8.858;2023-03-25T08:45:30;95934.81;;;6.19;100.00
19023;BME280;35226;48.606;8.858;2023-03-25T08:47:57;95939.13;;;6.20;100.00
19023;BME280;35226;48.606;8.858;2023-03-25T08:50:23;95935.69;;;6.16;100.00
19023;BME280;35226;48.606;8.858;2023-03-25T08:52:48;95936.22;;;6.27;100.00
19023;BME280;35226;48.606;8.858;2023-03-25T08:55:18;95932.06;;;6.39;100.00
19023;BME280;35226;48.606;8.858;2023-03-25T08:57:43;95931.56;;;6.44;100.00
19023;BME280;35226;48.606;8.858;2023-03-25T09:00:09;95929.66;;;6.41;100.00
19023;BME280;35226;48.606;8.858;2023-03-25T09:02:38;95926.16;;;6.57;100.00
19023;BME280;35226;48.606;8.858;2023-03-25T09:05:04;95922.66;;;6.56;100.00
19023;BME280;35226;48.606;8.858;2023-03-25T09:07:29;95909.63;;;6.60;100.00
19023;BME280;35226;48.606;8.858;2023-03-25T09:09:55;95903.88;;;6.55;100.00
19023;BME280;35226;48.606;8.858;2023-03-25T09:12:21;95907.72;;;6.57;100.00
19023;BME280;35226;48.606;8.858;2023-03-25T09:14:46;95891.63;;;6.59;100.00
19023;BME280;35226;48.606;8.858;2023-03-25T09:17:12;95906.13;;;6.76;100.00
19023;BME280;35226;48.606;8.858;2023-03-25T09:19:37;95883.66;;;6.81;100.00
19023;BME280;35226;48.606;8.858;2023-03-25T09:22:04;95894.03;;;6.90;100.00
19023;BME280;35226;48.606;8.858;2023-03-25T09:24:30;95880.41;;;7.02;100.00
19023;BME280;35226;48.606;8.858;2023-03-25T09:26:59;95884.00;;;6.99;100.00
19023;BME280;35226;48.606;8.858;2023-03-25T09:29:26;95874.13;;;7.02;100.00
19023;BME280;35226;48.606;8.858;2023-03-25T09:31:51;95870.63;;;7.01;100.00
19023;BME280;35226;48.606;8.858;2023-03-25T09:34:17;95870.44;;;6.92;100.00
19023;BME280;35226;48.606;8.858;2023-03-25T09:36:43;95875.91;;;7.09;100.00
19023;BME280;35226;48.606;8.858;2023-03-25T09:39:10;95873.59;;;7.23;100.00
19023;BME280;35226;48.606;8.858;2023-03-25T09:41:56;95884.47;;;7.43;100.00
19023;BME280;35226;48.606;8.858;2023-03-25T09:47:11;95862.28;;;7.50;100.00
19023;BME280;35226;48.606;8.858;2023-03-25T09:49:41;95874.53;;;7.33;100.00
19023;BME280;35226;48.606;8.858;2023-03-25T09:52:17;95874.06;;;7.51;100.00
19023;BME280;35226;48.606;8.858;2023-03-25T09:55:05;95879.75;;;7.72;100.00
19023;BME280;35226;48.606;8.858;2023-03-25T09:57:38;95877.06;;;7.98;100.00
19023;BME280;35226;48.606;8.858;2023-03-25T10:00:06;95884.44;;;8.01;100.00
19023;BME280;35226;48.606;8.858;2023-03-25T10:02:53;95866.28;;;8.03;100.00
19023;BME280;35226;48.606;8.858;2023-03-25T10:10:47;95854.50;;;8.32;100.00
19023;BME280;35226;48.606;8.858;2023-03-25T10:19:34;95824.53;;;8.59;100.00
19023;BME280;35226;48.606;8.858;2023-03-25T10:22:08;95807.09;;;8.75;100.00
19023;BME280;35226;48.606;8.858;2023-03-25T10:24:54;95785.25;;;8.93;100.00
19023;BME280;35226;48.606;8.858;2023-03-25T10:29:58;95806.75;;;9.54;100.00
19023;BME280;35226;48.606;8.858;2023-03-25T10:32:35;95776.66;;;9.25;100.00
19023;BME280;35226;48.606;8.858;2023-03-25T10:35:04;95771.25;;;9.22;100.00
19023;BME280;35226;48.606;8.858;2023-03-25T10:37:33;95771.25;;;9.00;100.00
19023;BME280;35226;48.606;8.858;2023-03-25T10:40:22;95771.63;;;8.77;100.00
19023;BME280;35226;48.606;8.858;2023-03-25T10:43:13;95761.50;;;8.74;100.00
19023;BME280;35226;48.606;8.858;2023-03-25T10:45:43;95765.38;;;8.64;100.00
19023;BME280;35226;48.606;8.858;2023-03-25T10:50:44;95762.66;;;8.51;100.00
19023;BME280;35226;48.606;8.858;2023-03-25T10:53:22;95767.16;;;8.45;100.00
19023;BME280;35226;48.606;8.858;2023-03-25T10:55:55;95754.78;;;8.62;100.00
19023;BME280;35226;48.606;8.858;2023-03-25T10:58:23;95762.84;;;8.57;100.00
19023;BME280;35226;48.606;8.858;2023-03-25T11:00:48;95774.63;;;8.57;100.00
19023;BME280;35226;48.606;8.858;2023-03-25T11:03:22;95767.59;;;8.56;100.00
19023;BME280;35226;48.606;8.858;2023-03-25T11:05:49;95760.22;;;8.53;100.00
19023;BME280;35226;48.606;8.858;2023-03-25T11:08:17;95758.69;;;8.39;100.00
19023;BME280;35226;48.606;8.858;2023-03-25T11:10:50;95763.75;;;8.41;100.00
19023;BME280;35226;48.606;8.858;2023-03-25T11:13:26;95776.09;;;8.49;100.00
19023;BME280;35226;48.606;8.858;2023-03-25T11:15:54;95795.34;;;8.36;100.00
19023;BME280;35226;48.606;8.858;2023-03-25T11:20:56;95813.63;;;8.68;100.00
19023;BME280;35226;48.606;8.858;2023-03-25T11:23:34;95815.09;;;9.07;100.00
19023;BME280;35226;48.606;8.858;2023-03-25T11:26:06;95803.41;;;9.03;100.00
19023;BME280;35226;48.606;8.858;2023-03-25T11:28:41;95790.75;;;8.93;100.00
19023;BME280;35226;48.606;8.858;2023-03-25T11:31:17;95790.28;;;9.07;100.00
19023;BME280;35226;48.606;8.858;2023-03-25T11:33:45;95774.28;;;9.37;100.00
19023;BME280;35226;48.606;8.858;2023-03-25T11:36:21;95759.81;;;9.45;100.00
19023;BME280;35226;48.606;8.858;2023-03-25T11:38:52;95754.59;;;9.47;100.00
19023;BME280;35226;48.606;8.858;2023-03-25T11:41:20;95763.53;;;9.82;100.00
19023;BME280;35226;48.606;8.858;2023-03-25T11:43:47;95754.56;;;9.91;100.00
19023;BME280;35226;48.606;8.858;2023-03-25T11:46:16;95736.28;;;10.15;100.00
19023;BME280;35226;48.606;8.858;2023-03-25T11:48:44;95735.94;;;10.44;100.00
19023;BME280;35226;48.606;8.858;2023-03-25T11:51:19;95747.47;;;10.52;100.00
19023;BME280;35226;48.606;8.858;2023-03-25T11:53:49;95733.66;;;10.52;100.00
19023;BME280;35226;48.606;8.858;2023-03-25T11:56:20;95738.44;;;10.69;100.00
19023;BME280;35226;48.606;8.858;2023-03-25T11:58:48;95729.69;;;10.62;100.00
19023;BME280;35226;48.606;8.858;2023-03-25T12:01:27;95729.34;;;10.51;100.00
19023;BME280;35226;48.606;8.858;2023-03-25T12:06:55;95708.53;;;10.77;100.00
19023;BME280;35226;48.606;8.858;2023-03-25T12:09:23;95699.63;;;10.73;100.00
19023;BME280;35226;48.606;8.858;2023-03-25T12:15:00;95715.34;;;11.91;100.00
19023;BME280;35226;48.606;8.858;2023-03-25T12:20:15;95734.03;;;11.45;100.00
19023;BME280;35226;48.606;8.858;2023-03-25T12:28:39;95729.38;;;11.60;100.00
19023;BME280;35226;48.606;8.858;2023-03-25T12:37:06;95741.41;;;10.93;100.00
19023;BME280;35226;48.606;8.858;2023-03-25T12:39:52;95756.88;;;10.82;100.00
19023;BME280;35226;48.606;8.858;2023-03-25T12:42:51;95747.28;;;10.06;100.00
19023;BME280;35226;48.606;8.858;2023-03-25T12:53:43;95753.56;;;11.23;100.00
19023;BME280;35226;48.606;8.858;2023-03-25T13:04:51;95774.25;;;11.00;100.00
19023;BME280;35226;48.606;8.858;2023-03-25T13:07:20;95777.03;;;10.42;100.00
19023;BME280;35226;48.606;8.858;2023-03-25T13:10:04;95769.63;;;10.30;100.00
19023;BME280;35226;48.606;8.858;2023-03-25T13:12:37;95772.84;;;9.97;100.00
19023;BME280;35226;48.606;8.858;2023-03-25T13:15:20;95774.69;;;10.31;100.00
19023;BME280;35226;48.606;8.858;2023-03-25T13:17:51;95758.00;;;11.11;100.00
19023;BME280;35226;48.606;8.858;2023-03-25T13:20:18;95746.31;;;11.53;100.00
19023;BME280;35226;48.606;8.858;2023-03-25T13:22:51;95736.22;;;12.10;100.00
19023;BME280;35226;48.606;8.858;2023-03-25T13:25:30;95721.53;;;11.77;100.00
19023;BME280;35226;48.606;8.858;2023-03-25T13:28:00;95722.03;;;11.48;100.00
19023;BME280;35226;48.606;8.858;2023-03-25T13:30:36;95705.31;;;11.24;100.00
19023;BME280;35226;48.606;8.858;2023-03-25T13:33:06;95711.38;;;11.83;100.00
19023;BME280;35226;48.606;8.858;2023-03-25T13:35:40;95713.38;;;12.24;100.00
19023;BME280;35226;48.606;8.858;2023-03-25T13:38:18;95698.16;;;12.77;100.00
19023;BME280;35226;48.606;8.858;2023-03-25T13:41:09;95686.25;;;13.24;100.00
19023;BME280;35226;48.606;8.858;2023-03-25T13:43:51;95691.81;;;14.12;100.00
19023;BME280;35226;48.606;8.858;2023-03-25T13:46:42;95697.78;;;12.84;100.00
19023;BME280;35226;48.606;8.858;2023-03-25T13:52:25;95714.63;;;13.57;100.00
19023;BME280;35226;48.606;8.858;2023-03-25T13:55:00;95699.47;;;13.44;100.00
19023;BME280;35226;48.606;8.858;2023-03-25T13:57:40;95724.28;;;13.09;100.00
19023;BME280;35226;48.606;8.858;2023-03-25T14:14:10;95755.59;;;12.76;100.00
19023;BME280;35226;48.606;8.858;2023-03-25T14:16:41;95744.81;;;12.78;100.00
19023;BME280;35226;48.606;8.858;2023-03-25T14:19:13;95754.66;;;13.95;100.00
19023;BME280;35226;48.606;8.858;2023-03-25T14:21:45;95751.88;;;13.65;100.00
19023;BME280;35226;48.606;8.858;2023-03-25T14:24:26;95752.75;;;13.33;100.00
19023;BME280;35226;48.606;8.858;2023-03-25T14:27:00;95747.47;;;12.96;100.00
19023;BME280;35226;48.606;8.858;2023-03-25T14:29:40;95735.03;;;12.92;100.00
19023;BME280;35226;48.606;8.858;2023-03-25T14:32:35;95718.91;;;13.44;100.00
19023;BME280;35226;48.606;8.858;2023-03-25T14:56:34;95719.19;;;13.46;98.76
19023;BME280;35226;48.606;8.858;2023-03-25T14:59:07;95732.25;;;12.92;92.21
19023;BME280;35226;48.606;8.858;2023-03-25T15:01:36;95752.56;;;12.41;98.39
19023;BME280;35226;48.606;8.858;2023-03-25T15:06:45;95744.00;;;11.79;100.00
19023;BME280;35226;48.606;8.858;2023-03-25T15:09:13;95740.41;;;11.97;100.00
19023;BME280;35226;48.606;8.858;2023-03-25T15:11:43;95736.81;;;12.05;100.00
19023;BME280;35226;48.606;8.858;2023-03-25T15:14:19;95740.78;;;13.27;100.00
19023;BME280;35226;48.606;8.858;2023-03-25T15:19:19;95733.81;;;11.85;100.00
19023;BME280;35226;48.606;8.858;2023-03-25T15:24:25;95724.09;;;12.88;100.00
19023;BME280;35226;48.606;8.858;2023-03-25T15:26:53;95726.13;;;12.31;100.00
19023;BME280;35226;48.606;8.858;2023-03-25T15:40:30;95729.88;;;11.49;100.00
19023;BME280;35226;48.606;8.858;2023-03-25T15:56:43;95719.59;;;10.86;100.00
19023;BME280;35226;48.606;8.858;2023-03-25T16:01:51;95729.69;;;10.62;100.00
19023;BME280;35226;48.606;8.858;2023-03-25T16:04:26;95716.50;;;10.66;100.00
19023;BME280;35226;48.606;8.858;2023-03-25T16:06:56;95718.66;;;10.71;100.00
19023;BME280;35226;48.606;8.858;2023-03-25T16:09:25;95718.81;;;10.77;100.00
19023;BME280;35226;48.606;8.858;2023-03-25T16:11:57;95718.19;;;10.72;100.00
19023;BME280;35226;48.606;8.858;2023-03-25T16:14:28;95709.78;;;10.85;100.00